sensor_id;sensor_type;location;lat;lon;timestamp;P1;durP1;ratioP1;P2;durP2;ratioP2
13868;SDS011;7004;48.206;16.402;2022-09-09T00:03:57;1.80;;;1.20;;
13868;SDS011;7004;48.206;16.402;2022-09-09T00:10:03;0.90;;;0.90;;
13868;SDS011;7004;48.206;16.402;2022-09-09T00:18:35;1.17;;;1.00;;
13868;SDS011;7004;48.206;16.402;2022-09-09T00:24:52;2.77;;;0.90;;
13868;SDS011;7004;48.206;16.402;2022-09-09T00:30:24;1.53;;;1.10;;
13868;SDS011;7004;48.206;16.402;2022-09-09T00:32:59;0.90;;;0.80;;
13868;SDS011;7004;48.206;16.402;2022-09-09T00:35:38;1.20;;;1.10;;
13868;SDS011;7004;48.206;16.402;2022-09-09T00:38:19;2.17;;;1.10;;
13868;SDS011;7004;48.206;16.402;2022-09-09T00:43:37;1.57;;;1.00;;
13868;SDS011;7004;48.206;16.402;2022-09-09T00:54:52;0.97;;;0.87;;
13868;SDS011;7004;48.206;16.402;2022-09-09T00:57:53;0.80;;;0.80;;
13868;SDS011;7004;48.206;16.402;2022-09-09T01:14:22;1.67;;;1.13;;
13868;SDS011;7004;48.206;16.402;2022-09-09T01:17:21;1.03;;;1.00;;
13868;SDS011;7004;48.206;16.402;2022-09-09T01:26:37;2.07;;;1.30;;
13868;SDS011;7004;48.206;16.402;2022-09-09T01:29:12;1.53;;;1.30;;
13868;SDS011;7004;48.206;16.402;2022-09-09T01:31:42;1.17;;;1.10;;
13868;SDS011;7004;48.206;16.402;2022-09-09T01:34:31;1.33;;;1.23;;
13868;SDS011;7004;48.206;16.402;2022-09-09T01:37:07;2.17;;;1.30;;
13868;SDS011;7004;48.206;16.402;2022-09-09T01:39:39;1.10;;;1.00;;
13868;SDS011;7004;48.206;16.402;2022-09-09T01:42:09;1.17;;;1.10;;
13868;SDS011;7004;48.206;16.402;2022-09-09T01:44:42;0.97;;;0.97;;
13868;SDS011;7004;48.206;16.402;2022-09-09T01:47:09;1.30;;;1.20;;
13868;SDS011;7004;48.206;16.402;2022-09-09T01:49:35;1.20;;;1.10;;
13868;SDS011;7004;48.206;16.402;2022-09-09T01:52:01;4.67;;;1.30;;
13868;SDS011;7004;48.206;16.402;2022-09-09T01:54:29;1.10;;;1.10;;
13868;SDS011;7004;48.206;16.402;2022-09-09T01:59:44;1.20;;;1.10;;
13868;SDS011;7004;48.206;16.402;2022-09-09T02:08:43;1.00;;;1.00;;
13868;SDS011;7004;48.206;16.402;2022-09-09T02:13:43;1.87;;;1.10;;
13868;SDS011;7004;48.206;16.402;2022-09-09T02:16:24;4.20;;;1.30;;
13868;SDS011;7004;48.206;16.402;2022-09-09T02:19:08;1.40;;;1.30;;
13868;SDS011;7004;48.206;16.402;2022-09-09T02:21:59;1.27;;;1.17;;
13868;SDS011;7004;48.206;16.402;2022-09-09T02:24:29;1.70;;;1.20;;
13868;SDS011;7004;48.206;16.402;2022-09-09T02:26:58;2.17;;;1.10;;
13868;SDS011;7004;48.206;16.402;2022-09-09T02:29:39;1.27;;;1.17;;
13868;SDS011;7004;48.206;16.402;2022-09-09T02:32:10;1.67;;;1.57;;
13868;SDS011;7004;48.206;16.402;2022-09-09T02:34:49;3.23;;;1.30;;
13868;SDS011;7004;48.206;16.402;2022-09-09T02:37:44;1.30;;;1.17;;
13868;SDS011;7004;48.206;16.402;2022-09-09T02:40:14;2.57;;;1.40;;
13868;SDS011;7004;48.206;16.402;2022-09-09T02:42:41;1.57;;;1.40;;
13868;SDS011;7004;48.206;16.402;2022-09-09T02:45:17;2.13;;;1.30;;
13868;SDS011;7004;48.206;16.402;2022-09-09T02:48:00;2.13;;;1.13;;
13868;SDS011;7004;48.206;16.402;2022-09-09T02:53:50;1.50;;;1.37;;
13868;SDS011;7004;48.206;16.402;2022-09-09T02:56:40;3.27;;;1.47;;
13868;SDS011;7004;48.206;16.402;2022-09-09T02:59:12;1.83;;;1.30;;
13868;SDS011;7004;48.206;16.402;2022-09-09T03:01:39;1.70;;;1.40;;
13868;SDS011;7004;48.206;16.402;2022-09-09T03:04:06;1.40;;;1.30;;
13868;SDS011;7004;48.206;16.402;2022-09-09T03:06:36;1.50;;;1.40;;
13868;SDS011;7004;48.206;16.402;2022-09-09T03:09:08;1.50;;;1.40;;
13868;SDS011;7004;48.206;16.402;2022-09-09T03:11:43;1.83;;;1.40;;
13868;SDS011;7004;48.206;16.402;2022-09-09T03:14:16;1.27;;;1.17;;
13868;SDS011;7004;48.206;16.402;2022-09-09T03:16:58;1.83;;;1.20;;
13868;SDS011;7004;48.206;16.402;2022-09-09T03:19:31;2.87;;;1.50;;
13868;SDS011;7004;48.206;16.402;2022-09-09T03:22:18;1.80;;;1.40;;
13868;SDS011;7004;48.206;16.402;2022-09-09T03:24:57;1.50;;;1.40;;
13868;SDS011;7004;48.206;16.402;2022-09-09T03:27:26;3.20;;;1.27;;
13868;SDS011;7004;48.206;16.402;2022-09-09T03:29:56;2.63;;;1.13;;
13868;SDS011;7004;48.206;16.402;2022-09-09T03:32:26;1.50;;;1.27;;
13868;SDS011;7004;48.206;16.402;2022-09-09T03:34:52;2.67;;;1.50;;
13868;SDS011;7004;48.206;16.402;2022-09-09T03:37:19;1.73;;;1.30;;
13868;SDS011;7004;48.206;16.402;2022-09-09T03:39:46;3.00;;;1.60;;
13868;SDS011;7004;48.206;16.402;2022-09-09T03:42:13;1.30;;;1.20;;
13868;SDS011;7004;48.206;16.402;2022-09-09T03:44:40;3.10;;;1.60;;
13868;SDS011;7004;48.206;16.402;2022-09-09T03:47:07;1.93;;;1.47;;
13868;SDS011;7004;48.206;16.402;2022-09-09T03:49:37;2.63;;;1.50;;
13868;SDS011;7004;48.206;16.402;2022-09-09T03:52:03;3.20;;;1.20;;
13868;SDS011;7004;48.206;16.402;2022-09-09T03:54:30;1.53;;;1.43;;
13868;SDS011;7004;48.206;16.402;2022-09-09T03:56:59;2.37;;;1.43;;
13868;SDS011;7004;48.206;16.402;2022-09-09T03:59:26;3.53;;;1.70;;
13868;SDS011;7004;48.206;16.402;2022-09-09T04:01:54;1.47;;;1.37;;
13868;SDS011;7004;48.206;16.402;2022-09-09T04:04:20;1.70;;;1.60;;
13868;SDS011;7004;48.206;16.402;2022-09-09T04:06:47;3.37;;;1.57;;
13868;SDS011;7004;48.206;16.402;2022-09-09T04:09:14;4.60;;;1.90;;
13868;SDS011;7004;48.206;16.402;2022-09-09T04:11:41;2.23;;;1.73;;
13868;SDS011;7004;48.206;16.402;2022-09-09T04:14:07;2.30;;;1.70;;
13868;SDS011;7004;48.206;16.402;2022-09-09T04:16:34;3.03;;;1.80;;
13868;SDS011;7004;48.206;16.402;2022-09-09T04:19:04;2.20;;;1.80;;
13868;SDS011;7004;48.206;16.402;2022-09-09T04:21:32;1.90;;;1.70;;
13868;SDS011;7004;48.206;16.402;2022-09-09T04:23:59;2.20;;;2.00;;
13868;SDS011;7004;48.206;16.402;2022-09-09T04:26:25;2.23;;;1.77;;
13868;SDS011;7004;48.206;16.402;2022-09-09T04:28:51;2.53;;;1.77;;
13868;SDS011;7004;48.206;16.402;2022-09-09T04:31:19;2.47;;;2.00;;
13868;SDS011;7004;48.206;16.402;2022-09-09T04:33:49;1.80;;;1.70;;
13868;SDS011;7004;48.206;16.402;2022-09-09T04:36:17;2.23;;;1.97;;
13868;SDS011;7004;48.206;16.402;2022-09-09T04:38:46;2.13;;;1.97;;
13868;SDS011;7004;48.206;16.402;2022-09-09T04:41:14;4.57;;;1.87;;
13868;SDS011;7004;48.206;16.402;2022-09-09T04:43:41;2.10;;;1.80;;
13868;SDS011;7004;48.206;16.402;2022-09-09T04:46:09;3.13;;;2.30;;
13868;SDS011;7004;48.206;16.402;2022-09-09T04:48:35;3.87;;;3.10;;
13868;SDS011;7004;48.206;16.402;2022-09-09T04:51:03;2.93;;;2.30;;
13868;SDS011;7004;48.206;16.402;2022-09-09T04:53:31;3.73;;;2.40;;
13868;SDS011;7004;48.206;16.402;2022-09-09T04:56:07;3.23;;;2.17;;
13868;SDS011;7004;48.206;16.402;2022-09-09T04:58:37;6.53;;;2.27;;
13868;SDS011;7004;48.206;16.402;2022-09-09T05:01:05;2.60;;;2.30;;
13868;SDS011;7004;48.206;16.402;2022-09-09T05:03:38;2.40;;;2.20;;
13868;SDS011;7004;48.206;16.402;2022-09-09T05:06:08;5.60;;;2.50;;
13868;SDS011;7004;48.206;16.402;2022-09-09T05:08:41;3.70;;;2.43;;
13868;SDS011;7004;48.206;16.402;2022-09-09T05:11:16;2.87;;;2.40;;
13868;SDS011;7004;48.206;16.402;2022-09-09T05:13:54;2.33;;;2.13;;
13868;SDS011;7004;48.206;16.402;2022-09-09T05:16:21;2.40;;;2.20;;
13868;SDS011;7004;48.206;16.402;2022-09-09T05:18:48;3.57;;;2.33;;
13868;SDS011;7004;48.206;16.402;2022-09-09T05:21:17;4.50;;;2.37;;
13868;SDS011;7004;48.206;16.402;2022-09-09T05:23:45;2.27;;;2.10;;
13868;SDS011;7004;48.206;16.402;2022-09-09T05:26:13;2.80;;;2.10;;
13868;SDS011;7004;48.206;16.402;2022-09-09T05:28:45;4.27;;;2.27;;
13868;SDS011;7004;48.206;16.402;2022-09-09T05:31:13;3.30;;;2.40;;
13868;SDS011;7004;48.206;16.402;2022-09-09T05:33:42;2.37;;;2.17;;
13868;SDS011;7004;48.206;16.402;2022-09-09T05:36:12;2.60;;;2.40;;
13868;SDS011;7004;48.206;16.402;2022-09-09T05:38:40;4.07;;;2.07;;
13868;SDS011;7004;48.206;16.402;2022-09-09T05:41:07;4.63;;;2.20;;
13868;SDS011;7004;48.206;16.402;2022-09-09T05:43:36;2.90;;;2.30;;
13868;SDS011;7004;48.206;16.402;2022-09-09T05:46:07;2.90;;;2.40;;
13868;SDS011;7004;48.206;16.402;2022-09-09T05:48:36;3.50;;;2.30;;
13868;SDS011;7004;48.206;16.402;2022-09-09T05:51:05;4.00;;;2.30;;
13868;SDS011;7004;48.206;16.402;2022-09-09T05:53:34;5.50;;;2.40;;
13868;SDS011;7004;48.206;16.402;2022-09-09T05:58:35;4.13;;;2.50;;
13868;SDS011;7004;48.206;16.402;2022-09-09T06:01:06;3.87;;;2.70;;
13868;SDS011;7004;48.206;16.402;2022-09-09T06:03:40;6.73;;;2.40;;
13868;SDS011;7004;48.206;16.402;2022-09-09T06:06:10;2.80;;;2.37;;
13868;SDS011;7004;48.206;16.402;2022-09-09T06:08:41;3.33;;;2.80;;
13868;SDS011;7004;48.206;16.402;2022-09-09T06:11:11;5.73;;;2.70;;
13868;SDS011;7004;48.206;16.402;2022-09-09T06:13:43;3.97;;;2.93;;
13868;SDS011;7004;48.206;16.402;2022-09-09T06:16:13;7.20;;;3.23;;
13868;SDS011;7004;48.206;16.402;2022-09-09T06:18:42;5.97;;;2.97;;
13868;SDS011;7004;48.206;16.402;2022-09-09T06:21:09;7.20;;;3.03;;
13868;SDS011;7004;48.206;16.402;2022-09-09T06:23:45;3.43;;;3.00;;
13868;SDS011;7004;48.206;16.402;2022-09-09T06:29:09;4.40;;;2.80;;
13868;SDS011;7004;48.206;16.402;2022-09-09T06:31:36;3.80;;;2.20;;
13868;SDS011;7004;48.206;16.402;2022-09-09T06:34:07;3.07;;;2.27;;
13868;SDS011;7004;48.206;16.402;2022-09-09T06:36:35;3.23;;;2.43;;
13868;SDS011;7004;48.206;16.402;2022-09-09T06:39:03;4.90;;;2.00;;
13868;SDS011;7004;48.206;16.402;2022-09-09T06:41:31;3.97;;;1.90;;
13868;SDS011;7004;48.206;16.402;2022-09-09T06:43:58;2.30;;;1.80;;
13868;SDS011;7004;48.206;16.402;2022-09-09T06:46:27;4.40;;;2.03;;
13868;SDS011;7004;48.206;16.402;2022-09-09T06:48:57;1.83;;;1.73;;
13868;SDS011;7004;48.206;16.402;2022-09-09T06:51:29;2.37;;;1.97;;
13868;SDS011;7004;48.206;16.402;2022-09-09T06:53:58;2.20;;;1.60;;
13868;SDS011;7004;48.206;16.402;2022-09-09T06:56:32;2.47;;;1.90;;
13868;SDS011;7004;48.206;16.402;2022-09-09T06:59:04;4.47;;;2.03;;
13868;SDS011;7004;48.206;16.402;2022-09-09T07:01:34;4.23;;;2.03;;
13868;SDS011;7004;48.206;16.402;2022-09-09T07:04:03;4.00;;;2.27;;
13868;SDS011;7004;48.206;16.402;2022-09-09T07:06:34;2.53;;;2.23;;
13868;SDS011;7004;48.206;16.402;2022-09-09T07:09:08;2.37;;;2.13;;
13868;SDS011;7004;48.206;16.402;2022-09-09T07:11:41;3.90;;;2.77;;
13868;SDS011;7004;48.206;16.402;2022-09-09T07:14:16;5.33;;;2.70;;
13868;SDS011;7004;48.206;16.402;2022-09-09T07:16:43;3.70;;;2.47;;
13868;SDS011;7004;48.206;16.402;2022-09-09T07:19:11;3.17;;;2.10;;
13868;SDS011;7004;48.206;16.402;2022-09-09T07:21:43;5.70;;;2.40;;
13868;SDS011;7004;48.206;16.402;2022-09-09T07:24:10;5.47;;;2.20;;
13868;SDS011;7004;48.206;16.402;2022-09-09T07:26:38;5.30;;;2.40;;
13868;SDS011;7004;48.206;16.402;2022-09-09T07:29:05;3.53;;;2.20;;
13868;SDS011;7004;48.206;16.402;2022-09-09T07:31:34;4.67;;;2.07;;
13868;SDS011;7004;48.206;16.402;2022-09-09T07:34:05;3.10;;;2.17;;
13868;SDS011;7004;48.206;16.402;2022-09-09T07:36:32;4.03;;;1.97;;
13868;SDS011;7004;48.206;16.402;2022-09-09T07:39:02;4.43;;;2.10;;
13868;SDS011;7004;48.206;16.402;2022-09-09T07:41:33;4.37;;;2.30;;
13868;SDS011;7004;48.206;16.402;2022-09-09T07:44:08;6.00;;;2.40;;
13868;SDS011;7004;48.206;16.402;2022-09-09T07:46:43;7.17;;;2.50;;
13868;SDS011;7004;48.206;16.402;2022-09-09T07:49:10;3.80;;;2.20;;
13868;SDS011;7004;48.206;16.402;2022-09-09T07:51:41;8.53;;;2.70;;
13868;SDS011;7004;48.206;16.402;2022-09-09T07:54:12;4.87;;;2.37;;
13868;SDS011;7004;48.206;16.402;2022-09-09T07:56:40;7.03;;;2.67;;
13868;SDS011;7004;48.206;16.402;2022-09-09T07:59:08;4.17;;;2.20;;
13868;SDS011;7004;48.206;16.402;2022-09-09T08:01:36;4.40;;;2.47;;
13868;SDS011;7004;48.206;16.402;2022-09-09T08:04:18;3.47;;;1.90;;
13868;SDS011;7004;48.206;16.402;2022-09-09T08:06:47;3.17;;;2.07;;
13868;SDS011;7004;48.206;16.402;2022-09-09T08:09:25;6.30;;;2.23;;
13868;SDS011;7004;48.206;16.402;2022-09-09T08:11:55;4.43;;;2.53;;
13868;SDS011;7004;48.206;16.402;2022-09-09T08:14:23;3.23;;;2.40;;
13868;SDS011;7004;48.206;16.402;2022-09-09T08:16:50;2.37;;;2.17;;
13868;SDS011;7004;48.206;16.402;2022-09-09T08:19:19;5.37;;;2.20;;
13868;SDS011;7004;48.206;16.402;2022-09-09T08:21:45;2.27;;;2.07;;
13868;SDS011;7004;48.206;16.402;2022-09-09T08:24:11;5.73;;;2.10;;
13868;SDS011;7004;48.206;16.402;2022-09-09T08:26:45;3.57;;;2.30;;
13868;SDS011;7004;48.206;16.402;2022-09-09T08:29:15;3.13;;;2.10;;
13868;SDS011;7004;48.206;16.402;2022-09-09T08:31:44;2.90;;;2.20;;
13868;SDS011;7004;48.206;16.402;2022-09-09T08:34:16;3.77;;;1.90;;
13868;SDS011;7004;48.206;16.402;2022-09-09T08:36:46;2.30;;;2.10;;
13868;SDS011;7004;48.206;16.402;2022-09-09T08:39:14;6.93;;;2.10;;
13868;SDS011;7004;48.206;16.402;2022-09-09T08:41:46;3.90;;;2.13;;
13868;SDS011;7004;48.206;16.402;2022-09-09T08:58:20;4.47;;;1.77;;
13868;SDS011;7004;48.206;16.402;2022-09-09T09:03:53;2.13;;;1.70;;
13868;SDS011;7004;48.206;16.402;2022-09-09T09:12:35;1.97;;;1.50;;
13868;SDS011;7004;48.206;16.402;2022-09-09T09:15:22;3.83;;;1.70;;
13868;SDS011;7004;48.206;16.402;2022-09-09T09:17:51;1.70;;;1.60;;
13868;SDS011;7004;48.206;16.402;2022-09-09T09:20:18;4.10;;;1.97;;
13868;SDS011;7004;48.206;16.402;2022-09-09T09:23:26;6.27;;;1.70;;
13868;SDS011;7004;48.206;16.402;2022-09-09T09:26:06;6.17;;;1.97;;
13868;SDS011;7004;48.206;16.402;2022-09-09T09:28:38;4.07;;;1.87;;
13868;SDS011;7004;48.206;16.402;2022-09-09T09:31:11;2.60;;;1.80;;
13868;SDS011;7004;48.206;16.402;2022-09-09T09:33:49;3.20;;;1.40;;
13868;SDS011;7004;48.206;16.402;2022-09-09T09:36:19;2.87;;;1.40;;
13868;SDS011;7004;48.206;16.402;2022-09-09T09:38:53;1.77;;;1.47;;
13868;SDS011;7004;48.206;16.402;2022-09-09T09:41:33;1.80;;;1.47;;
13868;SDS011;7004;48.206;16.402;2022-09-09T09:44:22;2.83;;;1.40;;
13868;SDS011;7004;48.206;16.402;2022-09-09T09:46:49;3.23;;;1.50;;
13868;SDS011;7004;48.206;16.402;2022-09-09T09:49:15;1.30;;;1.20;;
13868;SDS011;7004;48.206;16.402;2022-09-09T09:51:42;2.17;;;1.27;;
13868;SDS011;7004;48.206;16.402;2022-09-09T09:56:54;3.57;;;1.37;;
13868;SDS011;7004;48.206;16.402;2022-09-09T10:02:15;3.70;;;1.10;;
13868;SDS011;7004;48.206;16.402;2022-09-09T10:05:00;3.27;;;1.20;;
13868;SDS011;7004;48.206;16.402;2022-09-09T10:07:37;1.23;;;1.13;;
13868;SDS011;7004;48.206;16.402;2022-09-09T10:10:04;1.37;;;1.20;;
13868;SDS011;7004;48.206;16.402;2022-09-09T10:21:37;2.37;;;1.30;;
13868;SDS011;7004;48.206;16.402;2022-09-09T10:30:20;1.90;;;1.67;;
13868;SDS011;7004;48.206;16.402;2022-09-09T10:35:50;1.50;;;1.40;;
13868;SDS011;7004;48.206;16.402;2022-09-09T10:38:39;2.93;;;1.87;;
13868;SDS011;7004;48.206;16.402;2022-09-09T10:47:09;4.83;;;2.23;;
13868;SDS011;7004;48.206;16.402;2022-09-09T10:50:12;2.27;;;1.50;;
13868;SDS011;7004;48.206;16.402;2022-09-09T10:56:13;1.57;;;1.40;;
13868;SDS011;7004;48.206;16.402;2022-09-09T10:58:48;4.33;;;1.83;;
13868;SDS011;7004;48.206;16.402;2022-09-09T11:01:25;2.60;;;1.70;;
13868;SDS011;7004;48.206;16.402;2022-09-09T11:04:13;2.73;;;1.70;;
13868;SDS011;7004;48.206;16.402;2022-09-09T11:06:47;2.00;;;1.80;;
13868;SDS011;7004;48.206;16.402;2022-09-09T11:09:21;1.40;;;1.30;;
13868;SDS011;7004;48.206;16.402;2022-09-09T11:11:56;2.20;;;1.50;;
13868;SDS011;7004;48.206;16.402;2022-09-09T11:14:29;1.97;;;1.27;;
13868;SDS011;7004;48.206;16.402;2022-09-09T11:17:10;1.70;;;1.60;;
13868;SDS011;7004;48.206;16.402;2022-09-09T11:19:52;1.47;;;1.37;;
13868;SDS011;7004;48.206;16.402;2022-09-09T11:34:29;2.23;;;1.50;;
13868;SDS011;7004;48.206;16.402;2022-09-09T11:37:41;2.50;;;1.50;;
13868;SDS011;7004;48.206;16.402;2022-09-09T11:40:26;4.00;;;1.67;;
13868;SDS011;7004;48.206;16.402;2022-09-09T11:43:01;4.30;;;1.40;;
13868;SDS011;7004;48.206;16.402;2022-09-09T11:45:30;1.93;;;1.33;;
13868;SDS011;7004;48.206;16.402;2022-09-09T11:48:00;2.83;;;1.50;;
13868;SDS011;7004;48.206;16.402;2022-09-09T11:50:32;2.20;;;1.20;;
13868;SDS011;7004;48.206;16.402;2022-09-09T11:55:48;2.27;;;1.43;;
13868;SDS011;7004;48.206;16.402;2022-09-09T11:58:42;3.80;;;1.30;;
13868;SDS011;7004;48.206;16.402;2022-09-09T12:06:42;2.90;;;1.23;;
13868;SDS011;7004;48.206;16.402;2022-09-09T12:09:37;1.50;;;1.40;;
13868;SDS011;7004;48.206;16.402;2022-09-09T12:17:44;2.53;;;1.57;;
13868;SDS011;7004;48.206;16.402;2022-09-09T12:28:19;4.93;;;1.40;;
13868;SDS011;7004;48.206;16.402;2022-09-09T12:37:55;2.33;;;1.70;;
13868;SDS011;7004;48.206;16.402;2022-09-09T12:40:33;2.33;;;1.40;;
13868;SDS011;7004;48.206;16.402;2022-09-09T12:43:20;2.47;;;1.40;;
13868;SDS011;7004;48.206;16.402;2022-09-09T12:45:49;1.97;;;1.30;;
13868;SDS011;7004;48.206;16.402;2022-09-09T12:48:25;3.70;;;1.40;;
13868;SDS011;7004;48.206;16.402;2022-09-09T12:51:17;2.17;;;1.20;;
13868;SDS011;7004;48.206;16.402;2022-09-09T12:53:52;1.20;;;1.13;;
13868;SDS011;7004;48.206;16.402;2022-09-09T12:56:27;1.40;;;1.30;;
13868;SDS011;7004;48.206;16.402;2022-09-09T12:58:57;1.80;;;1.20;;
13868;SDS011;7004;48.206;16.402;2022-09-09T13:01:25;2.07;;;1.43;;
13868;SDS011;7004;48.206;16.402;2022-09-09T13:03:57;1.93;;;1.40;;
13868;SDS011;7004;48.206;16.402;2022-09-09T13:06:30;1.80;;;1.50;;
13868;SDS011;7004;48.206;16.402;2022-09-09T13:08:59;2.10;;;1.27;;
13868;SDS011;7004;48.206;16.402;2022-09-09T13:11:36;2.00;;;1.37;;
13868;SDS011;7004;48.206;16.402;2022-09-09T13:14:13;2.33;;;1.40;;
13868;SDS011;7004;48.206;16.402;2022-09-09T13:16:54;1.47;;;1.37;;
13868;SDS011;7004;48.206;16.402;2022-09-09T13:19:23;2.27;;;1.10;;
13868;SDS011;7004;48.206;16.402;2022-09-09T13:21:54;4.53;;;1.30;;
13868;SDS011;7004;48.206;16.402;2022-09-09T13:29:59;4.60;;;1.20;;
13868;SDS011;7004;48.206;16.402;2022-09-09T13:32:27;2.30;;;1.30;;
13868;SDS011;7004;48.206;16.402;2022-09-09T13:34:59;4.10;;;1.40;;
13868;SDS011;7004;48.206;16.402;2022-09-09T13:37:39;1.63;;;1.10;;
13868;SDS011;7004;48.206;16.402;2022-09-09T13:40:17;2.73;;;1.60;;
13868;SDS011;7004;48.206;16.402;2022-09-09T13:42:51;1.30;;;1.20;;
13868;SDS011;7004;48.206;16.402;2022-09-09T13:45:22;2.67;;;1.30;;
13868;SDS011;7004;48.206;16.402;2022-09-09T13:47:54;2.67;;;1.40;;
13868;SDS011;7004;48.206;16.402;2022-09-09T13:50:25;2.33;;;1.23;;
13868;SDS011;7004;48.206;16.402;2022-09-09T13:52:55;1.57;;;1.10;;
13868;SDS011;7004;48.206;16.402;2022-09-09T13:55:25;1.30;;;1.20;;
13868;SDS011;7004;48.206;16.402;2022-09-09T13:57:54;3.10;;;1.00;;
13868;SDS011;7004;48.206;16.402;2022-09-09T14:00:26;1.43;;;1.00;;
13868;SDS011;7004;48.206;16.402;2022-09-09T14:02:57;1.50;;;1.40;;
13868;SDS011;7004;48.206;16.402;2022-09-09T14:05:23;2.50;;;1.30;;
13868;SDS011;7004;48.206;16.402;2022-09-09T14:07:50;1.30;;;1.20;;
13868;SDS011;7004;48.206;16.402;2022-09-09T14:10:16;2.53;;;1.03;;
13868;SDS011;7004;48.206;16.402;2022-09-09T14:12:43;2.17;;;1.27;;
13868;SDS011;7004;48.206;16.402;2022-09-09T14:15:09;1.27;;;1.10;;
13868;SDS011;7004;48.206;16.402;2022-09-09T14:17:37;1.50;;;1.30;;
13868;SDS011;7004;48.206;16.402;2022-09-09T14:20:07;2.40;;;1.40;;
13868;SDS011;7004;48.206;16.402;2022-09-09T14:22:36;2.53;;;1.30;;
13868;SDS011;7004;48.206;16.402;2022-09-09T14:25:02;1.30;;;1.20;;
13868;SDS011;7004;48.206;16.402;2022-09-09T14:27:29;1.63;;;1.13;;
13868;SDS011;7004;48.206;16.402;2022-09-09T14:29:56;2.03;;;1.40;;
13868;SDS011;7004;48.206;16.402;2022-09-09T14:32:23;3.57;;;1.50;;
13868;SDS011;7004;48.206;16.402;2022-09-09T14:34:49;5.83;;;1.80;;
13868;SDS011;7004;48.206;16.402;2022-09-09T14:37:16;2.37;;;1.57;;
13868;SDS011;7004;48.206;16.402;2022-09-09T14:39:43;7.10;;;1.90;;
13868;SDS011;7004;48.206;16.402;2022-09-09T14:42:12;5.57;;;1.83;;
13868;SDS011;7004;48.206;16.402;2022-09-09T14:44:39;2.97;;;1.80;;
13868;SDS011;7004;48.206;16.402;2022-09-09T14:47:06;3.77;;;1.70;;
13868;SDS011;7004;48.206;16.402;2022-09-09T14:49:36;3.10;;;1.90;;
13868;SDS011;7004;48.206;16.402;2022-09-09T14:52:03;2.80;;;2.13;;
13868;SDS011;7004;48.206;16.402;2022-09-09T14:54:30;3.30;;;2.00;;
13868;SDS011;7004;48.206;16.402;2022-09-09T14:56:57;3.70;;;2.00;;
13868;SDS011;7004;48.206;16.402;2022-09-09T14:59:24;4.20;;;1.90;;
13868;SDS011;7004;48.206;16.402;2022-09-09T15:01:52;2.13;;;1.90;;
13868;SDS011;7004;48.206;16.402;2022-09-09T15:04:18;8.90;;;2.30;;
13868;SDS011;7004;48.206;16.402;2022-09-09T15:06:45;3.03;;;1.50;;
13868;SDS011;7004;48.206;16.402;2022-09-09T15:09:14;3.73;;;1.90;;
13868;SDS011;7004;48.206;16.402;2022-09-09T15:11:41;3.23;;;1.80;;
13868;SDS011;7004;48.206;16.402;2022-09-09T15:14:07;2.73;;;1.83;;
13868;SDS011;7004;48.206;16.402;2022-09-09T15:16:35;2.87;;;1.97;;
13868;SDS011;7004;48.206;16.402;2022-09-09T15:19:02;3.03;;;1.87;;
13868;SDS011;7004;48.206;16.402;2022-09-09T15:21:31;3.40;;;1.60;;
13868;SDS011;7004;48.206;16.402;2022-09-09T15:24:00;3.20;;;1.90;;
13868;SDS011;7004;48.206;16.402;2022-09-09T15:26:29;2.73;;;2.20;;
13868;SDS011;7004;48.206;16.402;2022-09-09T15:28:56;2.73;;;1.90;;
13868;SDS011;7004;48.206;16.402;2022-09-09T15:31:25;3.27;;;2.10;;
13868;SDS011;7004;48.206;16.402;2022-09-09T15:33:56;2.83;;;1.97;;
13868;SDS011;7004;48.206;16.402;2022-09-09T15:36:28;2.33;;;2.10;;
13868;SDS011;7004;48.206;16.402;2022-09-09T15:39:10;2.53;;;1.90;;
13868;SDS011;7004;48.206;16.402;2022-09-09T15:41:41;2.73;;;1.70;;
13868;SDS011;7004;48.206;16.402;2022-09-09T15:44:12;4.33;;;1.80;;
13868;SDS011;7004;48.206;16.402;2022-09-09T15:46:39;3.83;;;2.57;;
13868;SDS011;7004;48.206;16.402;2022-09-09T15:49:12;4.33;;;2.40;;
13868;SDS011;7004;48.206;16.402;2022-09-09T15:51:56;2.90;;;1.90;;
13868;SDS011;7004;48.206;16.402;2022-09-09T15:54:27;4.20;;;1.97;;
13868;SDS011;7004;48.206;16.402;2022-09-09T15:56:59;2.90;;;1.80;;
13868;SDS011;7004;48.206;16.402;2022-09-09T15:59:30;3.97;;;2.00;;
13868;SDS011;7004;48.206;16.402;2022-09-09T16:01:57;2.10;;;1.90;;
13868;SDS011;7004;48.206;16.402;2022-09-09T16:04:25;3.03;;;1.87;;
13868;SDS011;7004;48.206;16.402;2022-09-09T16:07:01;3.57;;;2.10;;
13868;SDS011;7004;48.206;16.402;2022-09-09T16:09:29;3.10;;;2.03;;
13868;SDS011;7004;48.206;16.402;2022-09-09T16:12:01;4.90;;;2.10;;
13868;SDS011;7004;48.206;16.402;2022-09-09T16:14:31;3.40;;;3.00;;
13868;SDS011;7004;48.206;16.402;2022-09-09T16:17:01;3.53;;;2.40;;
13868;SDS011;7004;48.206;16.402;2022-09-09T16:19:28;3.83;;;2.13;;
13868;SDS011;7004;48.206;16.402;2022-09-09T16:21:55;3.83;;;2.00;;
13868;SDS011;7004;48.206;16.402;2022-09-09T16:24:21;3.20;;;1.97;;
13868;SDS011;7004;48.206;16.402;2022-09-09T16:26:50;2.40;;;2.10;;
13868;SDS011;7004;48.206;16.402;2022-09-09T16:29:20;2.13;;;1.90;;
13868;SDS011;7004;48.206;16.402;2022-09-09T16:31:48;4.43;;;2.30;;
13868;SDS011;7004;48.206;16.402;2022-09-09T16:34:15;3.77;;;2.10;;
13868;SDS011;7004;48.206;16.402;2022-09-09T16:36:43;4.33;;;1.90;;
13868;SDS011;7004;48.206;16.402;2022-09-09T16:39:13;2.27;;;1.97;;
13868;SDS011;7004;48.206;16.402;2022-09-09T16:41:44;2.90;;;2.03;;
13868;SDS011;7004;48.206;16.402;2022-09-09T16:44:13;3.57;;;1.87;;
13868;SDS011;7004;48.206;16.402;2022-09-09T16:46:42;2.67;;;1.80;;
13868;SDS011;7004;48.206;16.402;2022-09-09T16:49:11;4.17;;;1.87;;
13868;SDS011;7004;48.206;16.402;2022-09-09T16:51:40;2.73;;;1.80;;
13868;SDS011;7004;48.206;16.402;2022-09-09T16:54:11;4.07;;;2.00;;
13868;SDS011;7004;48.206;16.402;2022-09-09T16:56:39;5.40;;;2.00;;
13868;SDS011;7004;48.206;16.402;2022-09-09T16:59:10;4.23;;;2.07;;
13868;SDS011;7004;48.206;16.402;2022-09-09T17:01:39;3.73;;;2.30;;
13868;SDS011;7004;48.206;16.402;2022-09-09T17:04:12;3.30;;;1.90;;
13868;SDS011;7004;48.206;16.402;2022-09-09T17:06:46;2.13;;;1.83;;
13868;SDS011;7004;48.206;16.402;2022-09-09T17:09:17;3.53;;;1.80;;
13868;SDS011;7004;48.206;16.402;2022-09-09T17:11:45;4.00;;;1.73;;
13868;SDS011;7004;48.206;16.402;2022-09-09T17:14:13;3.93;;;2.10;;
13868;SDS011;7004;48.206;16.402;2022-09-09T17:16:43;2.20;;;2.00;;
13868;SDS011;7004;48.206;16.402;2022-09-09T17:19:10;3.90;;;1.80;;
13868;SDS011;7004;48.206;16.402;2022-09-09T17:21:37;3.17;;;1.67;;
13868;SDS011;7004;48.206;16.402;2022-09-09T17:24:04;2.90;;;1.90;;
13868;SDS011;7004;48.206;16.402;2022-09-09T17:26:31;2.83;;;1.70;;
13868;SDS011;7004;48.206;16.402;2022-09-09T17:28:58;4.30;;;2.20;;
13868;SDS011;7004;48.206;16.402;2022-09-09T17:31:26;3.83;;;2.07;;
13868;SDS011;7004;48.206;16.402;2022-09-09T17:33:54;5.50;;;2.10;;
13868;SDS011;7004;48.206;16.402;2022-09-09T17:38:48;5.40;;;2.07;;
13868;SDS011;7004;48.206;16.402;2022-09-09T17:41:16;4.00;;;2.30;;
13868;SDS011;7004;48.206;16.402;2022-09-09T17:43:45;4.07;;;2.90;;
13868;SDS011;7004;48.206;16.402;2022-09-09T17:46:19;3.90;;;2.40;;
13868;SDS011;7004;48.206;16.402;2022-09-09T17:48:49;4.23;;;2.37;;
13868;SDS011;7004;48.206;16.402;2022-09-09T17:51:20;3.57;;;2.50;;
13868;SDS011;7004;48.206;16.402;2022-09-09T17:53:53;2.93;;;2.40;;
13868;SDS011;7004;48.206;16.402;2022-09-09T17:56:24;2.83;;;1.90;;
13868;SDS011;7004;48.206;16.402;2022-09-09T17:58:54;3.40;;;2.03;;
13868;SDS011;7004;48.206;16.402;2022-09-09T18:01:21;2.30;;;2.10;;
13868;SDS011;7004;48.206;16.402;2022-09-09T18:03:57;2.67;;;2.13;;
13868;SDS011;7004;48.206;16.402;2022-09-09T18:06:27;3.93;;;1.90;;
13868;SDS011;7004;48.206;16.402;2022-09-09T18:08:59;3.03;;;2.10;;
13868;SDS011;7004;48.206;16.402;2022-09-09T18:11:31;2.57;;;2.20;;